This is the latest recevied weather packets stored in our database for station/object W2GRK-15. If no packets are shown the sender has not sent any weather packets the latest 10 day(s).
| Time | Temp. | Humidity | Pressure | Rain* | Wind** | Luminosity | Snow |
|---|---|---|---|---|---|---|---|
| 1777580368 | 16.67° C | 69% | 1007.5 hPa | 0 mm | - | 171 W/m² | - |
| 1777578649 | 15.56° C | 73% | 1007 hPa | 0 mm | - | 201 W/m² | - |
| 1777578211 | 15.56° C | 73% | 1007.1 hPa | 0 mm | - | 217 W/m² | - |
| 1777578146 | 15.56° C | 73% | 1007.3 hPa | 0 mm | - | 195 W/m² | - |
| 1777577969 | 15.56° C | 72% | 1007.3 hPa | 0 mm | - | 164 W/m² | - |
| 1777577840 | 15.56° C | 71% | 1007.2 hPa | 0 mm | - | 168 W/m² | - |
| 1777577486 | 15.56° C | 72% | 1007.2 hPa | 0 mm | - | 207 W/m² | - |
| 1777576363 | 15° C | 77% | 1007.5 hPa | 0 mm | - | 248 W/m² | - |
| 1777576037 | 15° C | 77% | 1007.5 hPa | 0 mm | - | 243 W/m² | - |
| 1777575924 | 15° C | 78% | 1007.5 hPa | 0 mm | - | 212 W/m² | - |
| 1777574909 | 15° C | 80% | 1007.5 hPa | 0 mm | - | 222 W/m² | - |
| 1777574716 | 15° C | 79% | 1007.5 hPa | 0 mm | - | 223 W/m² | - |
| 1777574687 | 15° C | 79% | 1007.5 hPa | 0 mm | - | 224 W/m² | - |
| 1777574185 | 14.44° C | 83% | 1007.5 hPa | 0 mm | - | 230 W/m² | - |
| 1777573879 | 14.44° C | 85% | 1007.6 hPa | 0 mm | - | 194 W/m² | - |
| 1777573283 | 13.89° C | 85% | 1007.8 hPa | 0 mm | - | 84 W/m² | - |
| 1777572382 | 14.44° C | 80% | 1007.6 hPa | 0 mm | - | 36 W/m² | - |
| 1777572027 | 14.44° C | 78% | 1007.7 hPa | 0 mm | - | 68 W/m² | - |
| 1777571544 | 14.44° C | 79% | 1007.8 hPa | 0 mm | - | 125 W/m² | - |
| 1777571238 | 15° C | 78% | 1007.5 hPa | 0 mm | - | 150 W/m² | - |
| 1777570948 | 15° C | 79% | 1007.8 hPa | 0 mm | - | 208 W/m² | - |
| 1777570755 | 14.44° C | 79% | 1007.7 hPa | 0 mm | - | 310 W/m² | - |
| 1777570643 | 14.44° C | 79% | 1007.5 hPa | 0 mm | - | 454 W/m² | - |
| 1777570530 | 14.44° C | 79% | 1007.8 hPa | 0 mm | - | 371 W/m² | - |
| 1777570288 | 14.44° C | 81% | 1007.7 hPa | 0 mm | - | 363 W/m² | - |
* Rain latest hour (hover to see other rain measurements)
** Current wind speed in m/s (hover to see current wind gust speed)